Time;durP1;ratioP1;P1;durP2;ratioP2;P2;SDS_P1;SDS_P2;PMS_P1;PMS_P2;Temp;Humidity;BMP_temperature;BMP_pressure;BME280_temperature;BME280_humidity;BME280_pressure;Samples;Min_cycle;Max_cycle;Signal;HPM_P1;HPM_P2
2023/01/28 00:09:06;;;;;;;26.25;10.45;;;0.30;99.90;;;;;;21004532;28;20052;-76
2023/01/28 00:19:07;;;;;;;28.27;10.00;;;0.30;99.90;;;;;;21005497;28;20099;-76
2023/01/28 00:29:07;;;;;;;25.25;10.85;;;0.30;99.90;;;;;;21004464;28;20059;-76
2023/01/28 00:39:14;;;;;;;28.17;9.75;;;0.30;99.90;;;;;;21003707;28;20126;-76
2023/01/28 00:49:16;;;;;;;23.05;10.10;;;0.40;99.90;;;;;;21003461;28;20024;-76
2023/01/28 00:59:16;;;;;;;23.25;8.85;;;0.50;99.90;;;;;;20983762;28;20138;-76
2023/01/28 01:09:17;;;;;;;22.50;9.10;;;0.40;99.90;;;;;;20996727;28;20031;-76
2023/01/28 01:19:18;;;;;;;16.48;7.88;;;0.40;99.90;;;;;;21006738;28;20033;-76
2023/01/28 01:29:19;;;;;;;17.73;8.80;;;0.40;99.90;;;;;;20998893;28;20086;-76
2023/01/28 01:39:19;;;;;;;20.75;8.95;;;0.40;99.90;;;;;;20977351;28;20123;-76
2023/01/28 01:49:25;;;;;;;17.88;8.55;;;0.30;99.90;;;;;;20976809;28;20467;-77
2023/01/28 01:59:32;;;;;;;18.30;7.90;;;0.40;99.90;;;;;;20976830;28;20078;-76
2023/01/28 02:09:35;;;;;;;15.23;7.38;;;0.40;99.90;;;;;;20996843;28;20184;-76
2023/01/28 02:19:41;;;;;;;18.58;8.85;;;0.40;99.90;;;;;;20996324;28;20043;-77
2023/01/28 02:30:11;;;;;;;23.52;9.18;;;0.40;99.90;;;;;;20988373;28;20035;-76
2023/01/28 02:40:18;;;;;;;21.08;9.55;;;0.40;99.90;;;;;;20994526;28;20032;-76
2023/01/28 02:50:20;;;;;;;23.85;9.57;;;0.30;99.90;;;;;;20975367;28;20024;-76
2023/01/28 03:00:46;;;;;;;21.13;9.38;;;0.30;99.90;;;;;;20975492;28;20173;-76
2023/01/28 03:42:12;;;;;;;20.85;9.65;;;0.20;99.90;;;;;;20902964;28;20160;-77
2023/01/28 03:52:29;;;;;;;23.83;9.55;;;0.20;99.90;;;;;;20981934;28;20052;-77
2023/01/28 04:02:41;;;;;;;32.78;11.20;;;0.20;99.90;;;;;;20972901;28;20116;-77
2023/01/28 04:12:48;;;;;;;22.55;9.90;;;0.20;99.90;;;;;;20971937;28;20501;-77
2023/01/28 04:22:49;;;;;;;26.40;10.85;;;0.20;99.90;;;;;;20971338;28;20040;-77
2023/01/28 04:32:53;;;;;;;26.38;10.00;;;0.20;99.90;;;;;;20971155;28;20403;-77
2023/01/28 04:43:04;;;;;;;25.48;8.95;;;0.20;99.90;;;;;;20970306;28;20056;-76
2023/01/28 04:53:22;;;;;;;24.02;10.27;;;0.30;99.90;;;;;;20981261;28;20032;-76
2023/01/28 05:03:31;;;;;;;23.20;10.53;;;0.30;99.90;;;;;;20985308;28;20055;-77
2023/01/28 05:13:34;;;;;;;22.45;10.27;;;0.30;99.90;;;;;;20984627;28;20083;-77
2023/01/28 05:23:36;;;;;;;25.40;11.07;;;0.30;99.90;;;;;;20984311;28;20541;-77
2023/01/28 05:33:37;;;;;;;20.63;9.27;;;0.30;99.90;;;;;;20994328;28;20029;-77
2023/01/28 05:43:41;;;;;;;23.88;9.63;;;0.30;99.90;;;;;;21006867;28;20550;-77
2023/01/28 05:53:53;;;;;;;22.13;10.15;;;0.40;99.90;;;;;;20981219;28;20032;-77
2023/01/28 06:03:56;;;;;;;20.80;9.25;;;0.40;99.90;;;;;;20986749;28;20036;-78
2023/01/28 06:14:00;;;;;;;23.58;9.60;;;0.40;99.90;;;;;;21031061;28;20032;-75
2023/01/28 06:24:26;;;;;;;18.27;8.30;;;0.50;99.90;;;;;;21066836;28;20033;-76
2023/01/28 06:34:27;;;;;;;22.83;9.90;;;0.50;99.90;;;;;;21000675;28;20049;-78
2023/01/28 06:44:28;;;;;;;23.75;9.40;;;0.40;99.90;;;;;;21006457;28;20029;-77
2023/01/28 06:54:28;;;;;;;19.50;8.93;;;0.50;99.90;;;;;;21013314;28;20043;-78
2023/01/28 07:04:30;;;;;;;19.70;8.80;;;0.50;99.90;;;;;;21011086;28;20028;-77
2023/01/28 07:14:31;;;;;;;25.17;10.23;;;0.50;99.90;;;;;;21016992;28;20107;-77
2023/01/28 07:24:32;;;;;;;28.02;10.27;;;0.60;99.90;;;;;;21009201;28;20082;-77
2023/01/28 07:34:36;;;;;;;25.17;9.15;;;0.60;99.90;;;;;;21000997;28;20483;-78
2023/01/28 07:44:37;;;;;;;28.23;11.43;;;0.60;99.90;;;;;;21055513;28;20114;-78
2023/01/28 07:54:38;;;;;;;20.98;8.80;;;0.60;99.90;;;;;;21052557;28;20025;-77
2023/01/28 08:04:39;;;;;;;21.27;9.45;;;0.70;99.90;;;;;;20995763;28;20032;-77
2023/01/28 08:14:40;;;;;;;17.33;9.02;;;0.70;99.90;;;;;;20990598;28;20032;-77
2023/01/28 08:24:41;;;;;;;17.27;7.72;;;0.70;99.90;;;;;;20997282;28;20154;-77
2023/01/28 08:34:41;;;;;;;18.85;8.93;;;0.70;99.90;;;;;;21008649;28;20495;-77
2023/01/28 08:44:42;;;;;;;16.27;8.60;;;0.70;99.90;;;;;;21006771;28;20036;-77
2023/01/28 08:54:43;;;;;;;13.50;6.97;;;0.70;99.90;;;;;;21006072;28;20044;-77
2023/01/28 09:04:44;;;;;;;10.63;5.13;;;0.70;99.90;;;;;;21003181;28;20491;-77
2023/01/28 09:14:44;;;;;;;16.55;7.75;;;0.80;99.90;;;;;;21001900;28;20094;-77
2023/01/28 09:24:45;;;;;;;21.20;8.82;;;0.80;99.90;;;;;;20999792;28;20487;-77
2023/01/28 09:34:46;;;;;;;19.08;8.23;;;0.90;99.90;;;;;;20997321;28;20115;-77
2023/01/28 09:45:15;;;;;;;19.10;8.30;;;0.90;99.90;;;;;;20998511;28;20020;-77
2023/01/28 09:55:30;;;;;;;16.92;7.38;;;0.70;99.90;;;;;;21000913;28;20535;-77
2023/01/28 10:05:52;;;;;;;140.93;50.80;;;0.80;99.90;;;;;;20995273;28;20028;-77
2023/01/28 10:16:11;;;;;;;29.63;13.90;;;1.00;99.90;;;;;;21010022;28;20037;-77
2023/01/28 10:26:36;;;;;;;17.00;7.93;;;1.20;99.90;;;;;;21013425;28;20039;-77
2023/01/28 10:36:37;;;;;;;20.50;8.40;;;1.30;99.90;;;;;;20993102;28;20048;-76
2023/01/28 10:46:39;;;;;;;14.52;7.28;;;1.40;99.90;;;;;;20996599;28;20047;-77
2023/01/28 10:56:42;;;;;;;17.48;7.93;;;1.40;99.90;;;;;;20999344;28;20040;-77
2023/01/28 11:07:04;;;;;;;13.85;6.35;;;1.60;99.90;;;;;;21000019;28;20032;-76
2023/01/28 11:17:15;;;;;;;11.43;5.60;;;1.80;99.90;;;;;;21013410;28;20036;-77
2023/01/28 11:27:21;;;;;;;12.43;5.97;;;1.80;99.90;;;;;;20990537;28;20036;-77
2023/01/28 11:37:24;;;;;;;18.90;7.32;;;2.00;99.90;;;;;;20990492;28;20036;-78
2023/01/28 11:47:48;;;;;;;202.27;74.30;;;2.30;99.90;;;;;;20990573;28;20112;-76
2023/01/28 11:57:55;;;;;;;16.40;9.13;;;2.10;99.90;;;;;;21042322;28;20445;-76
2023/01/28 12:08:29;;;;;;;15.30;7.93;;;2.20;99.90;;;;;;21038857;28;20119;-76
2023/01/28 12:19:03;;;;;;;20.15;11.30;;;2.60;99.90;;;;;;20950496;28;20033;-77
2023/01/28 12:29:25;;;;;;;11.48;5.13;;;2.70;99.90;;;;;;20956616;28;20052;-78
2023/01/28 12:39:32;;;;;;;14.68;6.60;;;2.50;99.90;;;;;;20988257;28;20032;-77
2023/01/28 12:49:46;;;;;;;29.13;13.40;;;2.60;99.90;;;;;;20991227;28;20035;-77
2023/01/28 13:00:11;;;;;;;13.98;6.97;;;2.60;99.90;;;;;;21049369;28;20024;-77
2023/01/28 13:10:37;;;;;;;15.07;6.72;;;2.60;99.90;;;;;;21075637;28;20513;-77
2023/01/28 13:20:49;;;;;;;16.90;8.02;;;2.60;99.90;;;;;;21086581;28;20089;-77
2023/01/28 13:30:52;;;;;;;14.57;8.32;;;2.40;99.90;;;;;;21012284;28;20028;-77
2023/01/28 13:41:05;;;;;;;8.77;4.63;;;2.40;99.90;;;;;;20949474;28;20029;-77
2023/01/28 13:51:31;;;;;;;8.52;4.45;;;2.20;99.90;;;;;;20922653;28;20624;-78
2023/01/28 14:01:55;;;;;;;12.70;4.95;;;2.00;99.90;;;;;;20923296;28;20036;-78
2023/01/28 14:12:14;;;;;;;12.52;5.30;;;2.00;99.90;;;;;;20925988;28;20031;-78
2023/01/28 14:22:19;;;;;;;10.95;4.80;;;2.10;99.90;;;;;;20921483;28;20127;-78
2023/01/28 14:32:28;;;;;;;13.10;5.30;;;1.90;99.90;;;;;;20998032;28;20521;-78
2023/01/28 14:43:01;;;;;;;13.30;5.47;;;1.80;99.90;;;;;;20998011;28;20078;-79
2023/01/28 14:53:26;;;;;;;9.18;4.70;;;1.80;99.90;;;;;;20941781;28;20075;-78
2023/01/28 15:03:28;;;;;;;10.88;4.43;;;1.90;99.90;;;;;;20993834;28;20420;-78
2023/01/28 15:13:35;;;;;;;10.18;4.32;;;1.90;99.90;;;;;;20993283;28;20028;-78
2023/01/28 15:23:39;;;;;;;8.00;3.95;;;1.80;99.90;;;;;;20994053;28;20046;-77
2023/01/28 15:33:40;;;;;;;10.30;5.03;;;1.80;99.90;;;;;;20991602;28;20503;-79
2023/01/28 15:43:47;;;;;;;9.55;4.88;;;1.80;99.90;;;;;;20958551;28;20055;-78
2023/01/28 15:53:51;;;;;;;20.45;8.30;;;1.70;99.90;;;;;;20929176;28;20075;-78
2023/01/28 16:04:07;;;;;;;11.13;3.80;;;1.70;99.90;;;;;;20989006;28;20115;-78
2023/01/28 16:14:29;;;;;;;12.38;6.22;;;1.60;99.90;;;;;;20985625;28;20118;-78
2023/01/28 16:24:37;;;;;;;11.10;5.40;;;1.60;99.90;;;;;;20995056;28;20032;-77
2023/01/28 16:34:41;;;;;;;9.40;4.45;;;1.70;99.90;;;;;;20991939;28;20031;-77
2023/01/28 16:44:41;;;;;;;11.27;4.40;;;1.70;99.90;;;;;;20994307;28;20564;-77
2023/01/28 16:54:45;;;;;;;9.82;3.63;;;1.60;99.90;;;;;;21008088;28;20068;-77
2023/01/28 17:04:46;;;;;;;9.13;4.43;;;1.70;99.90;;;;;;21013270;28;20024;-77
2023/01/28 17:14:47;;;;;;;11.73;5.45;;;1.60;99.90;;;;;;21002720;28;20028;-77
2023/01/28 17:24:48;;;;;;;14.15;5.97;;;1.60;99.90;;;;;;20999703;28;20111;-77
2023/01/28 17:34:48;;;;;;;17.50;6.88;;;1.60;99.90;;;;;;20965726;28;20381;-78
2023/01/28 17:44:49;;;;;;;19.85;9.65;;;1.60;99.90;;;;;;21024373;28;20048;-77
2023/01/28 17:54:50;;;;;;;12.95;6.13;;;1.60;99.90;;;;;;20994549;28;20030;-77
2023/01/28 18:04:51;;;;;;;12.80;6.20;;;1.60;99.90;;;;;;21022102;28;20024;-76
2023/01/28 18:14:51;;;;;;;14.75;7.38;;;1.50;99.90;;;;;;21010989;28;20032;-78
2023/01/28 18:24:52;;;;;;;15.30;7.28;;;1.50;99.90;;;;;;20990019;28;20043;-78
2023/01/28 18:34:53;;;;;;;14.50;7.22;;;1.50;99.90;;;;;;21043639;28;20036;-77
2023/01/28 18:44:54;;;;;;;20.25;8.23;;;1.50;99.90;;;;;;21010925;28;20472;-77
2023/01/28 18:54:55;;;;;;;15.05;6.55;;;1.60;99.90;;;;;;21039555;28;20490;-78
2023/01/28 19:04:56;;;;;;;16.38;7.78;;;1.50;99.90;;;;;;21081168;28;20044;-77
2023/01/28 19:14:57;;;;;;;15.88;8.05;;;1.50;99.90;;;;;;21012216;28;20032;-78
2023/01/28 19:24:58;;;;;;;14.15;7.20;;;1.50;99.90;;;;;;20969206;28;20029;-78
2023/01/28 19:34:59;;;;;;;16.50;7.20;;;1.50;99.90;;;;;;20993659;28;20490;-78
2023/01/28 19:44:59;;;;;;;12.02;5.95;;;1.50;99.90;;;;;;21049987;28;20111;-79
2023/01/28 19:55:00;;;;;;;13.18;6.63;;;1.50;99.90;;;;;;21011269;28;20480;-79
2023/01/28 20:05:01;;;;;;;11.82;6.50;;;1.60;99.90;;;;;;20918144;28;20029;-78
2023/01/28 20:15:02;;;;;;;12.52;6.30;;;1.60;99.90;;;;;;20990285;28;20036;-75
2023/01/28 20:25:03;;;;;;;12.23;5.60;;;1.50;99.90;;;;;;21009359;28;20039;-78
2023/01/28 20:35:04;;;;;;;11.63;5.03;;;1.60;99.90;;;;;;21011210;28;20530;-76
2023/01/28 20:45:05;;;;;;;11.43;5.82;;;1.60;99.90;;;;;;21008304;28;20384;-77
2023/01/28 20:55:07;;;;;;;9.25;4.20;;;1.60;99.90;;;;;;20989570;28;20423;-77
2023/01/28 21:05:08;;;;;;;10.48;4.57;;;1.60;99.90;;;;;;21008102;28;20506;-77
2023/01/28 21:15:09;;;;;;;9.70;4.47;;;1.60;99.90;;;;;;20989591;28;20025;-77
2023/01/28 21:25:10;;;;;;;12.90;5.25;;;1.60;99.90;;;;;;21002289;28;20025;-77
2023/01/28 21:35:10;;;;;;;12.27;4.80;;;1.50;99.90;;;;;;21014142;28;20025;-77
2023/01/28 21:45:11;;;;;;;10.95;5.05;;;1.40;99.90;;;;;;21020012;28;20044;-77
2023/01/28 21:55:12;;;;;;;13.10;5.90;;;1.40;99.90;;;;;;21023012;28;20050;-77
2023/01/28 22:05:13;;;;;;;27.30;8.57;;;1.40;99.90;;;;;;20999435;28;20052;-77
2023/01/28 22:15:14;;;;;;;12.95;5.50;;;1.30;99.90;;;;;;20983191;28;20029;-77
2023/01/28 22:25:15;;;;;;;16.42;5.90;;;1.30;99.90;;;;;;20980541;28;20036;-78
2023/01/28 22:35:16;;;;;;;15.85;6.80;;;1.30;99.90;;;;;;20931420;28;20052;-78
2023/01/28 22:45:16;;;;;;;16.80;6.32;;;1.30;99.90;;;;;;20917086;28;20025;-78
2023/01/28 22:55:17;;;;;;;16.85;6.60;;;1.20;99.90;;;;;;20953452;28;20036;-79
2023/01/28 23:05:19;;;;;;;17.75;5.57;;;1.10;99.90;;;;;;21024740;28;20040;-78
2023/01/28 23:25:39;;;;;;;9.73;4.13;;;0.90;99.90;;;;;;21016262;28;20037;-79
2023/01/28 23:35:40;;;;;;;10.55;4.05;;;0.90;99.90;;;;;;20989137;28;20503;-77
2023/01/28 23:45:41;;;;;;;11.80;5.13;;;0.90;99.90;;;;;;21071731;28;20479;-79
2023/01/28 23:55:42;;;;;;;11.38;4.43;;;0.90;99.90;;;;;;21059918;28;20051;-77
